createdAt,value
2019-04-22T00:01:34.341Z,96792.17
2019-04-22T00:04:12.023Z,96798.17
2019-04-22T00:07:03.074Z,96795.58
2019-04-22T00:09:38.819Z,96797.73
2019-04-22T00:12:14.084Z,96800.73
2019-04-22T00:14:43.839Z,96797.27
2019-04-22T00:17:25.100Z,96793.36
2019-04-22T00:19:57.606Z,96792.06
2019-04-22T00:24:59.831Z,96790.79
2019-04-22T00:27:35.735Z,96785.65
2019-04-22T00:32:46.343Z,96780.50
2019-04-22T00:35:18.197Z,96774.06
2019-04-22T00:37:58.120Z,96768.05
2019-04-22T00:40:30.878Z,96763.71
2019-04-22T00:43:03.494Z,96766.28
2019-04-22T00:45:38.547Z,96761.12
2019-04-22T00:48:15.937Z,96762.84
2019-04-22T00:50:49.613Z,96757.25
2019-04-22T00:53:23.940Z,96760.72
2019-04-22T00:56:14.337Z,96758.54
2019-04-22T00:58:40.783Z,96761.59
2019-04-22T01:03:57.039Z,96760.71
2019-04-22T01:06:20.510Z,96754.26
2019-04-22T01:09:00.212Z,96755.97
2019-04-22T01:11:29.488Z,96746.94
2019-04-22T01:14:03.158Z,96746.92
2019-04-22T01:16:37.740Z,96748.19
2019-04-22T01:19:07.075Z,96743.03
2019-04-22T01:21:40.534Z,96746.45
2019-04-22T01:24:17.521Z,96744.64
2019-04-22T01:26:43.479Z,96739.84
2019-04-22T01:29:11.013Z,96743.22
2019-04-22T01:31:38.244Z,96743.25
2019-04-22T01:34:23.370Z,96726.00
2019-04-22T01:37:00.000Z,96732.86
2019-04-22T01:39:43.927Z,96740.53
2019-04-22T01:42:10.828Z,96733.60
2019-04-22T01:44:49.083Z,96736.98
2019-04-22T01:47:26.446Z,96733.13
2019-04-22T01:49:52.737Z,96732.26
2019-04-22T01:52:29.692Z,96725.44
2019-04-22T01:55:04.322Z,96719.45
2019-04-22T01:57:35.019Z,96726.75
2019-04-22T02:00:01.051Z,96721.58
2019-04-22T02:02:41.894Z,96718.14
2019-04-22T02:07:51.550Z,96708.73
2019-04-22T02:10:30.136Z,96707.05
2019-04-22T02:12:58.831Z,96701.09
2019-04-22T02:15:25.909Z,96696.78
2019-04-22T02:18:03.301Z,96699.70
2019-04-22T02:26:07.155Z,96687.99
2019-04-22T02:36:30.422Z,96672.14
2019-04-22T02:46:44.966Z,96653.34
2019-04-22T02:51:32.747Z,96652.88
2019-04-22T02:57:04.384Z,96654.13
2019-04-22T03:01:47.431Z,96639.61
2019-04-22T03:06:49.499Z,96646.38
2019-04-22T03:14:45.633Z,96626.67
2019-04-22T03:17:18.678Z,96630.95
2019-04-22T03:25:23.604Z,96630.03
2019-04-22T03:33:05.472Z,96623.55
2019-04-22T03:55:43.434Z,96609.77
2019-04-22T03:58:05.489Z,96613.20
2019-04-22T04:01:06.780Z,96614.91
2019-04-22T04:03:19.336Z,96604.54
2019-04-22T04:05:59.747Z,96607.11
2019-04-22T04:08:39.039Z,96602.87
2019-04-22T04:10:58.115Z,96607.53
2019-04-22T04:13:49.679Z,96604.13
2019-04-22T04:16:16.080Z,96602.36
2019-04-22T04:19:05.053Z,96603.64
2019-04-22T04:21:26.837Z,96598.02
2019-04-22T04:26:42.745Z,96595.91
2019-04-22T04:31:35.429Z,96598.89
2019-04-22T04:34:14.775Z,96593.72
2019-04-22T04:36:42.437Z,96592.41
2019-04-22T04:39:21.307Z,96593.72
2019-04-22T04:44:23.289Z,96586.09
2019-04-22T04:49:48.014Z,96593.14
2019-04-22T04:52:06.427Z,96585.91
2019-04-22T04:57:11.299Z,96581.33
2019-04-22T05:00:11.160Z,96574.09
2019-04-22T05:05:00.148Z,96582.27
2019-04-22T05:09:51.707Z,96588.31
2019-04-22T05:12:41.744Z,96578.90
2019-04-22T05:15:00.387Z,96577.19
2019-04-22T05:20:07.357Z,96578.05
2019-04-22T05:22:37.740Z,96581.92
2019-04-22T05:32:43.289Z,96564.53
2019-04-22T05:35:20.773Z,96559.71
2019-04-22T05:37:58.078Z,96559.59
2019-04-22T05:40:22.960Z,96556.87
2019-04-22T05:42:58.898Z,96554.15
2019-04-22T05:45:32.827Z,96556.21
2019-04-22T05:48:00.958Z,96556.43
2019-04-22T05:50:37.322Z,96552.22
2019-04-22T05:53:07.129Z,96550.58
2019-04-22T05:55:47.929Z,96556.61
2019-04-22T05:58:15.292Z,96554.33
2019-04-22T06:01:36.727Z,96553.78
2019-04-22T06:03:46.139Z,96556.00
2019-04-22T06:06:15.079Z,96556.95
2019-04-22T06:08:51.223Z,96555.28
2019-04-22T06:11:26.756Z,96545.63
2019-04-22T06:13:59.276Z,96542.30
2019-04-22T06:16:43.109Z,96538.80
2019-04-22T06:21:42.400Z,96533.73
2019-04-22T06:24:28.001Z,96539.59
2019-04-22T06:27:08.504Z,96541.38
2019-04-22T06:29:22.196Z,96536.36
2019-04-22T06:32:17.608Z,96534.64
2019-04-22T06:34:28.701Z,96533.69
2019-04-22T06:37:07.355Z,96531.92
2019-04-22T06:42:09.808Z,96524.51
2019-04-22T06:44:44.099Z,96526.19
2019-04-22T06:47:21.088Z,96519.52
2019-04-22T06:49:53.306Z,96519.22
2019-04-22T06:52:22.621Z,96517.63
2019-04-22T06:54:54.535Z,96520.61
2019-04-22T06:57:25.450Z,96511.72
2019-04-22T07:00:08.309Z,96520.91
2019-04-22T07:02:45.269Z,96516.84
2019-04-22T07:05:07.784Z,96517.59
2019-04-22T07:07:40.006Z,96507.88
2019-04-22T07:10:23.848Z,96509.44
2019-04-22T07:13:06.447Z,96500.83
2019-04-22T07:15:36.988Z,96503.86
2019-04-22T07:17:58.428Z,96499.79
2019-04-22T07:23:04.336Z,96493.42
2019-04-22T07:25:34.927Z,96495.21
2019-04-22T07:28:05.444Z,96497.48
2019-04-22T07:30:41.164Z,96495.34
2019-04-22T07:36:00.642Z,96491.04
2019-04-22T07:38:23.831Z,96487.92
2019-04-22T07:40:51.904Z,96484.23
2019-04-22T07:45:55.021Z,96472.11
2019-04-22T07:48:43.029Z,96474.41
2019-04-22T07:51:10.068Z,96468.83
2019-04-22T07:53:34.235Z,96466.23
2019-04-22T07:56:12.227Z,96463.41
2019-04-22T07:58:42.132Z,96459.91
2019-04-22T08:01:24.616Z,96462.53
2019-04-22T08:04:01.897Z,96458.18
2019-04-22T08:06:26.406Z,96463.63
2019-04-22T08:09:00.279Z,96455.45
2019-04-22T08:11:47.937Z,96454.24
2019-04-22T08:14:10.514Z,96451.21
2019-04-22T08:16:41.960Z,96452.23
2019-04-22T08:19:15.790Z,96443.05
2019-04-22T08:21:46.220Z,96446.02
2019-04-22T08:24:22.404Z,96442.27
2019-04-22T08:26:53.184Z,96436.60
2019-04-22T08:29:37.701Z,96436.08
2019-04-22T08:32:01.201Z,96428.08
2019-04-22T08:34:29.877Z,96424.90
2019-04-22T08:37:37.418Z,96411.87
2019-04-22T08:39:35.877Z,96415.23
2019-04-22T08:42:17.940Z,96410.37
2019-04-22T08:45:05.867Z,96405.45
2019-04-22T08:47:27.735Z,96403.98
2019-04-22T08:52:31.932Z,96391.56
2019-04-22T08:55:07.431Z,96382.15
2019-04-22T09:02:38.623Z,96382.98
2019-04-22T09:05:33.558Z,96377.37
2019-04-22T09:07:48.935Z,96369.30
2019-04-22T09:10:21.765Z,96378.63
2019-04-22T09:15:26.424Z,96367.47
2019-04-22T09:18:02.096Z,96358.50
2019-04-22T09:20:32.895Z,96356.93
2019-04-22T09:23:09.322Z,96355.08
2019-04-22T09:28:31.133Z,96355.94
2019-04-22T09:30:52.438Z,96357.39
2019-04-22T09:33:20.395Z,96358.91
2019-04-22T09:41:00.654Z,96349.20
2019-04-22T09:43:40.754Z,96352.20
2019-04-22T09:46:08.546Z,96347.22
2019-04-22T09:48:43.504Z,96338.42
2019-04-22T09:51:12.042Z,96335.23
2019-04-22T09:53:54.862Z,96336.55
2019-04-22T09:56:23.852Z,96333.33
2019-04-22T10:04:02.081Z,96323.18
2019-04-22T10:06:35.317Z,96318.97
2019-04-22T10:09:26.973Z,96310.98
2019-04-22T10:11:39.104Z,96312.66
2019-04-22T10:14:13.888Z,96307.59
2019-04-22T10:19:18.687Z,96303.68
2019-04-22T10:24:19.094Z,96297.83
2019-04-22T10:26:59.989Z,96296.39
2019-04-22T10:29:36.777Z,96288.78
2019-04-22T10:32:07.036Z,96284.67
2019-04-22T10:34:27.013Z,96281.93
2019-04-22T10:36:52.755Z,96271.70
2019-04-22T10:39:33.768Z,96285.09
2019-04-22T10:41:54.645Z,96263.75
2019-04-22T10:44:27.059Z,96263.03
2019-04-22T10:46:59.965Z,96264.24
2019-04-22T10:49:31.794Z,96251.80
2019-04-22T10:52:04.566Z,96249.38
2019-04-22T10:54:36.145Z,96246.62
2019-04-22T10:57:08.638Z,96239.52
2019-04-22T10:59:40.812Z,96234.63
2019-04-22T11:02:13.656Z,96232.59
2019-04-22T11:04:46.040Z,96231.65
2019-04-22T11:07:19.009Z,96225.96
2019-04-22T11:09:59.239Z,96221.77
2019-04-22T11:12:26.989Z,96215.20
2019-04-22T11:14:58.089Z,96213.31
2019-04-22T11:17:29.725Z,96212.13
2019-04-22T11:20:01.914Z,96211.08
2019-04-22T11:22:36.847Z,96207.09
2019-04-22T11:25:07.626Z,96202.25
2019-04-22T11:27:39.197Z,96201.08
2019-04-22T11:30:11.454Z,96202.09
2019-04-22T11:32:44.505Z,96200.73
2019-04-22T11:35:16.399Z,96187.86
2019-04-22T11:37:48.673Z,96190.82
2019-04-22T11:40:30.045Z,96184.63
2019-04-22T11:42:56.531Z,96177.48
2019-04-22T11:45:29.177Z,96179.95
2019-04-22T11:48:01.481Z,96179.62
2019-04-22T11:50:33.576Z,96174.45
2019-04-22T11:53:07.099Z,96172.05
2019-04-22T11:55:38.656Z,96168.73
2019-04-22T11:58:10.664Z,96164.23
2019-04-22T12:00:43.297Z,96162.45
2019-04-22T12:03:14.874Z,96164.91
2019-04-22T12:05:47.923Z,96148.58
2019-04-22T12:08:20.725Z,96145.86
2019-04-22T12:10:56.920Z,96147.00
2019-04-22T12:13:26.150Z,96145.75
2019-04-22T12:15:58.846Z,96142.95
2019-04-22T12:18:31.249Z,96135.73
2019-04-22T12:21:03.589Z,96139.59
2019-04-22T12:23:37.050Z,96129.39
2019-04-22T12:26:12.794Z,96126.73
2019-04-22T12:28:42.078Z,96129.81
2019-04-22T12:31:13.671Z,96126.95
2019-04-22T12:33:45.451Z,96119.23
2019-04-22T12:36:18.285Z,96113.79
2019-04-22T12:38:49.806Z,96108.09
2019-04-22T12:41:21.690Z,96110.74
2019-04-22T12:43:53.490Z,96104.99
2019-04-22T12:46:26.319Z,96099.20
2019-04-22T12:48:58.252Z,96098.73
2019-04-22T12:51:31.333Z,96095.72
2019-04-22T12:54:03.361Z,96083.70
2019-04-22T12:56:35.473Z,96079.11
2019-04-22T12:59:07.641Z,96076.73
2019-04-22T13:01:39.539Z,96066.89
2019-04-22T13:04:14.188Z,96068.36
2019-04-22T13:06:46.065Z,96067.16
2019-04-22T13:09:19.495Z,96057.70
2019-04-22T13:11:51.116Z,96051.05
2019-04-22T13:14:23.195Z,96054.63
2019-04-22T13:16:55.170Z,96048.23
2019-04-22T13:19:28.268Z,96046.27
2019-04-22T13:22:00.945Z,96044.45
2019-04-22T13:24:34.055Z,96035.11
2019-04-22T13:27:06.681Z,96036.36
2019-04-22T13:29:39.346Z,96027.02
2019-04-22T13:32:10.960Z,96024.11
2019-04-22T13:34:49.440Z,96021.90
2019-04-22T13:37:16.989Z,96024.05
2019-04-22T13:39:49.262Z,96011.33
2019-04-22T13:42:23.211Z,96004.41
2019-04-22T13:44:53.780Z,96003.83
2019-04-22T13:47:41.524Z,95997.97
2019-04-22T13:50:34.572Z,96000.94
2019-04-22T13:53:18.290Z,95998.66
2019-04-22T13:55:41.464Z,95998.10
2019-04-22T13:57:57.245Z,95995.37
2019-04-22T14:00:20.547Z,95985.17
2019-04-22T14:03:00.459Z,95981.56
2019-04-22T14:05:32.924Z,95981.34
2019-04-22T14:08:06.008Z,95976.89
2019-04-22T14:10:38.646Z,95978.45
2019-04-22T14:13:11.951Z,95962.80
2019-04-22T14:15:43.972Z,95955.72
2019-04-22T14:18:16.915Z,95956.20
2019-04-22T14:20:49.197Z,95968.88
2019-04-22T14:23:22.447Z,95957.22
2019-04-22T14:25:54.785Z,95946.84
2019-04-22T14:28:28.877Z,95950.26
2019-04-22T14:31:00.476Z,95947.68
2019-04-22T14:33:32.138Z,95932.62
2019-04-22T14:36:04.763Z,95935.66
2019-04-22T14:38:36.787Z,95925.78
2019-04-22T14:41:12.086Z,95922.30
2019-04-22T14:44:49.512Z,95919.58
2019-04-22T14:46:39.187Z,95918.84
2019-04-22T14:49:10.410Z,95910.02
2019-04-22T14:51:44.163Z,95907.27
2019-04-22T14:54:12.690Z,95891.66
2019-04-22T14:56:28.659Z,95895.30
2019-04-22T14:59:00.803Z,95896.38
2019-04-22T15:01:32.915Z,95887.20
2019-04-22T15:04:05.443Z,95895.67
2019-04-22T15:06:38.029Z,95884.20
2019-04-22T15:09:10.368Z,95889.58
2019-04-22T15:11:54.868Z,95884.86
2019-04-22T15:14:17.134Z,95889.09
2019-04-22T15:17:07.021Z,95884.13
2019-04-22T15:19:45.920Z,95883.23
2019-04-22T15:22:18.683Z,95877.50
2019-04-22T15:24:50.614Z,95872.75
2019-04-22T15:27:22.572Z,95868.21
2019-04-22T15:29:54.147Z,95871.92
2019-04-22T15:32:25.453Z,95874.48
2019-04-22T15:34:57.328Z,95875.41
2019-04-22T15:37:29.010Z,95856.50
2019-04-22T15:40:00.612Z,95860.42
2019-04-22T15:42:37.344Z,95857.73
2019-04-22T15:45:08.448Z,95853.50
2019-04-22T15:47:39.936Z,95856.06
2019-04-22T15:50:12.225Z,95845.10
2019-04-22T15:52:49.635Z,95842.42
2019-04-22T15:55:18.548Z,95845.91
2019-04-22T15:57:50.084Z,95846.02
2019-04-22T16:00:35.557Z,95832.06
2019-04-22T16:02:55.300Z,95838.13
2019-04-22T16:05:28.001Z,95837.73
2019-04-22T16:08:01.167Z,95842.73
2019-04-22T16:10:35.349Z,95842.30
2019-04-22T16:13:13.213Z,95848.67
2019-04-22T16:15:40.760Z,95837.28
2019-04-22T16:18:15.086Z,95835.16
2019-04-22T16:20:48.088Z,95828.88
2019-04-22T16:23:42.358Z,95830.77
2019-04-22T16:26:18.058Z,95834.05
2019-04-22T16:28:52.311Z,95822.84
2019-04-22T16:31:22.895Z,95823.75
2019-04-22T16:33:54.533Z,95823.61
2019-04-22T16:36:26.935Z,95825.63
2019-04-22T16:39:00.484Z,95816.61
2019-04-22T16:41:34.807Z,95818.92
2019-04-22T16:44:08.937Z,95813.02
2019-04-22T16:46:41.715Z,95814.77
2019-04-22T16:49:15.811Z,95817.09
2019-04-22T16:51:47.828Z,95815.25
2019-04-22T16:54:20.184Z,95819.02
2019-04-22T16:56:52.370Z,95818.48
2019-04-22T16:59:24.548Z,95813.02
2019-04-22T17:02:19.028Z,95811.11
2019-04-22T17:04:57.752Z,95809.39
2019-04-22T17:07:29.984Z,95805.80
2019-04-22T17:10:02.047Z,95811.50
2019-04-22T17:12:45.746Z,95814.63
2019-04-22T17:15:12.696Z,95814.55
2019-04-22T17:17:45.215Z,95806.09
2019-04-22T17:20:17.423Z,95805.34
2019-04-22T17:22:49.439Z,95810.98
2019-04-22T17:25:22.486Z,95812.27
2019-04-22T17:27:55.241Z,95819.31
2019-04-22T17:30:29.022Z,95820.67
2019-04-22T17:33:00.947Z,95813.61
2019-04-22T17:35:33.999Z,95809.57
2019-04-22T17:38:16.361Z,95811.81
2019-04-22T17:40:58.189Z,95808.05
2019-04-22T17:43:40.549Z,95815.05
2019-04-22T17:46:10.768Z,95821.06
2019-04-22T17:49:04.016Z,95814.73
2019-04-22T17:51:36.710Z,95813.95
2019-04-22T17:54:07.333Z,95820.12
2019-04-22T17:56:43.434Z,95827.84
2019-04-22T17:59:15.535Z,95824.78
2019-04-22T18:01:43.583Z,95826.61
2019-04-22T18:04:04.708Z,95831.36
2019-04-22T18:07:05.420Z,95826.09
2019-04-22T18:09:53.123Z,95823.87
2019-04-22T18:12:13.508Z,95825.86
2019-04-22T18:14:49.750Z,95822.30
2019-04-22T18:17:19.460Z,95824.03
2019-04-22T18:19:46.288Z,95828.36
2019-04-22T18:22:14.776Z,95826.78
2019-04-22T18:24:49.375Z,95830.03
2019-04-22T18:27:40.340Z,95831.63
2019-04-22T18:29:57.137Z,95827.98
2019-04-22T18:32:26.082Z,95828.23
2019-04-22T18:35:00.852Z,95831.47
2019-04-22T18:37:40.999Z,95827.00
2019-04-22T18:40:15.069Z,95835.38
2019-04-22T18:42:49.511Z,95842.68
2019-04-22T18:45:35.558Z,95842.86
2019-04-22T18:47:45.619Z,95840.41
2019-04-22T18:50:33.999Z,95836.05
2019-04-22T18:53:30.070Z,95837.13
2019-04-22T18:56:03.775Z,95838.31
2019-04-22T18:58:32.247Z,95844.52
2019-04-22T19:00:51.303Z,95840.97
2019-04-22T19:03:29.484Z,95846.33
2019-04-22T19:06:31.875Z,95842.34
2019-04-22T19:08:53.662Z,95848.59
2019-04-22T19:11:22.368Z,95851.47
2019-04-22T19:16:36.636Z,95843.91
2019-04-22T19:19:27.518Z,95850.28
2019-04-22T19:21:38.116Z,95841.38
2019-04-22T19:24:09.607Z,95842.58
2019-04-22T19:29:18.664Z,95839.36
2019-04-22T19:31:52.662Z,95832.68
2019-04-22T19:34:25.653Z,95840.77
2019-04-22T19:36:59.347Z,95844.84
2019-04-22T19:39:27.586Z,95850.66
2019-04-22T19:42:13.676Z,95846.11
2019-04-22T19:44:38.555Z,95850.27
2019-04-22T19:47:25.157Z,95847.73
2019-04-22T19:49:54.562Z,95854.57
2019-04-22T19:52:24.110Z,95849.23
2019-04-22T19:54:57.320Z,95851.38
2019-04-22T19:57:22.441Z,95851.47
2019-04-22T19:59:56.261Z,95855.69
2019-04-22T20:02:57.555Z,95858.61
2019-04-22T20:05:50.965Z,95859.99
2019-04-22T20:08:21.530Z,95857.17
2019-04-22T20:10:51.160Z,95860.30
2019-04-22T20:13:30.894Z,95857.77
2019-04-22T20:15:51.911Z,95857.70
2019-04-22T20:18:44.065Z,95855.91
2019-04-22T20:21:13.712Z,95852.73
2019-04-22T20:23:32.926Z,95851.95
2019-04-22T20:26:07.311Z,95849.51
2019-04-22T20:28:51.269Z,95848.13
2019-04-22T20:31:19.313Z,95850.30
2019-04-22T20:33:59.740Z,95846.20
2019-04-22T20:36:49.104Z,95832.53
2019-04-22T20:38:53.621Z,95831.41
2019-04-22T20:41:26.234Z,95827.42
2019-04-22T20:44:13.367Z,95832.25
2019-04-22T20:46:39.415Z,95834.70
2019-04-22T20:49:11.807Z,95825.38
2019-04-22T20:54:19.624Z,95818.18
2019-04-22T20:56:51.949Z,95816.02
2019-04-22T20:59:30.007Z,95816.37
2019-04-22T21:01:57.902Z,95815.28
2019-04-22T21:04:26.366Z,95813.05
2019-04-22T21:07:05.132Z,95807.79
2019-04-22T21:09:37.955Z,95801.23
2019-04-22T21:12:09.046Z,95801.05
2019-04-22T21:14:52.866Z,95799.14
2019-04-22T21:17:24.897Z,95799.55
2019-04-22T21:20:04.659Z,95783.37
2019-04-22T21:22:28.532Z,95792.55
2019-04-22T21:24:57.363Z,95787.89
2019-04-22T21:27:42.452Z,95791.69
2019-04-22T21:29:58.143Z,95776.17
2019-04-22T21:32:38.851Z,95778.47
2019-04-22T21:35:21.821Z,95781.66
2019-04-22T21:37:54.829Z,95776.47
2019-04-22T21:40:25.815Z,95773.52
2019-04-22T21:42:59.673Z,95770.56
2019-04-22T21:45:21.652Z,95766.84
2019-04-22T21:48:13.783Z,95760.67
2019-04-22T21:50:58.162Z,95756.48
2019-04-22T21:53:20.442Z,95759.61
2019-04-22T21:55:43.973Z,95752.32
2019-04-22T21:58:38.142Z,95750.94
2019-04-22T22:01:35.235Z,95746.54
2019-04-22T22:04:03.116Z,95741.70
2019-04-22T22:06:26.965Z,95738.27
2019-04-22T22:09:08.959Z,95735.38
2019-04-22T22:11:40.029Z,95728.89
2019-04-22T22:14:11.535Z,95729.30
2019-04-22T22:16:38.859Z,95723.91
2019-04-22T22:19:17.824Z,95717.37
2019-04-22T22:21:58.303Z,95718.05
2019-04-22T22:24:32.918Z,95716.66
2019-04-22T22:26:55.619Z,95714.94
2019-04-22T22:29:43.377Z,95713.94
2019-04-22T22:32:12.938Z,95703.54
2019-04-22T22:34:43.628Z,95699.29
2019-04-22T22:37:06.433Z,95695.17
2019-04-22T22:39:38.117Z,95692.97
2019-04-22T22:41:59.568Z,95692.89
2019-04-22T22:44:36.899Z,95687.83
2019-04-22T22:47:24.238Z,95676.52
2019-04-22T22:49:57.633Z,95682.70
2019-04-22T22:52:55.562Z,95679.98
2019-04-22T22:55:06.872Z,95686.52
2019-04-22T22:57:38.302Z,95691.43
2019-04-22T23:00:11.528Z,95676.66
2019-04-22T23:03:03.413Z,95672.69
2019-04-22T23:05:19.373Z,95666.70
2019-04-22T23:07:55.453Z,95670.80
2019-04-22T23:10:26.667Z,95658.77
2019-04-22T23:13:00.470Z,95652.64
2019-04-22T23:15:31.506Z,95664.41
2019-04-22T23:17:43.734Z,95662.75
2019-04-22T23:20:18.464Z,95654.53
2019-04-22T23:23:17.147Z,95653.02
2019-04-22T23:25:53.283Z,95653.72
2019-04-22T23:28:29.623Z,95646.88
2019-04-22T23:31:21.061Z,95643.59
2019-04-22T23:34:01.185Z,95635.92
2019-04-22T23:36:54.209Z,95628.72
2019-04-22T23:39:30.951Z,95625.00
2019-04-22T23:42:10.948Z,95628.75
2019-04-22T23:44:36.697Z,95631.95
2019-04-22T23:47:04.870Z,95635.13
2019-04-22T23:49:35.340Z,95624.67
2019-04-22T23:52:23.836Z,95616.53
2019-04-22T23:54:57.102Z,95614.69
2019-04-22T23:57:36.642Z,95614.69
